createdAt,value
2019-02-04T00:01:06.301Z,10.30
2019-02-04T00:03:37.153Z,9.10
2019-02-04T00:06:08.174Z,10.60
2019-02-04T00:08:39.007Z,9.80
2019-02-04T00:11:09.810Z,10.37
2019-02-04T00:13:40.550Z,8.23
2019-02-04T00:16:12.374Z,11.53
2019-02-04T00:18:43.864Z,10.37
2019-02-04T00:21:14.026Z,8.47
2019-02-04T00:23:45.150Z,10.47
2019-02-04T00:26:16.025Z,9.70
2019-02-04T00:28:47.162Z,9.30
2019-02-04T00:31:18.665Z,12.00
2019-02-04T00:33:49.800Z,8.40
2019-02-04T00:36:22.348Z,10.03
2019-02-04T00:38:52.613Z,10.77
2019-02-04T00:41:24.166Z,11.50
2019-02-04T00:43:56.453Z,11.90
2019-02-04T00:46:27.185Z,11.40
2019-02-04T00:48:58.228Z,12.40
2019-02-04T00:51:28.102Z,10.43
2019-02-04T00:53:58.178Z,11.90
2019-02-04T00:56:28.082Z,11.17
2019-02-04T00:59:00.889Z,12.10
2019-02-04T01:01:31.161Z,12.20
2019-02-04T01:04:03.694Z,12.87
2019-02-04T01:06:35.362Z,9.87
2019-02-04T01:09:06.674Z,12.90
2019-02-04T01:11:37.279Z,12.93
2019-02-04T01:14:07.292Z,14.57
2019-02-04T01:16:36.609Z,13.07
2019-02-04T01:19:06.225Z,13.53
2019-02-04T01:21:38.422Z,12.30
2019-02-04T01:24:10.365Z,15.20
2019-02-04T01:26:42.631Z,14.30
2019-02-04T01:29:14.938Z,42.67
2019-02-04T01:31:44.829Z,16.57
2019-02-04T01:34:15.569Z,15.77
2019-02-04T01:36:48.761Z,14.80
2019-02-04T01:39:19.785Z,12.53
2019-02-04T01:41:52.338Z,14.43
2019-02-04T01:44:25.157Z,14.80
2019-02-04T01:46:56.289Z,14.73
2019-02-04T01:49:27.396Z,16.37
2019-02-04T01:51:59.157Z,12.70
2019-02-04T01:54:30.195Z,15.33
2019-02-04T01:57:00.264Z,13.13
2019-02-04T01:59:32.121Z,16.80
2019-02-04T02:02:03.283Z,16.77
2019-02-04T02:04:34.085Z,14.17
2019-02-04T02:07:04.489Z,17.37
2019-02-04T02:09:35.734Z,14.50
2019-02-04T02:12:06.986Z,16.90
2019-02-04T02:14:37.069Z,17.30
2019-02-04T02:17:07.927Z,14.33
2019-02-04T02:19:38.565Z,17.63
2019-02-04T02:22:08.401Z,17.70
2019-02-04T02:24:38.541Z,13.83
2019-02-04T02:27:10.188Z,17.57
2019-02-04T02:29:39.942Z,17.03
2019-02-04T02:32:11.551Z,16.70
2019-02-04T02:34:42.297Z,14.77
2019-02-04T02:37:13.345Z,16.17
2019-02-04T02:39:45.427Z,13.40
2019-02-04T02:42:17.385Z,69.23
2019-02-04T02:44:48.197Z,17.63
2019-02-04T02:47:18.817Z,16.93
2019-02-04T02:49:48.903Z,13.70
2019-02-04T02:52:19.631Z,15.97
2019-02-04T02:54:50.575Z,16.33
2019-02-04T02:57:24.546Z,16.93
2019-02-04T02:59:55.526Z,13.93
2019-02-04T03:02:26.940Z,16.60
2019-02-04T03:04:56.838Z,16.87
2019-02-04T03:07:28.537Z,14.20
2019-02-04T03:10:01.258Z,15.77
2019-02-04T03:12:31.529Z,16.77
2019-02-04T03:15:01.431Z,17.80
2019-02-04T03:17:31.513Z,17.73
2019-02-04T03:20:02.590Z,14.40
2019-02-04T03:22:34.977Z,17.77
2019-02-04T03:25:05.277Z,17.97
2019-02-04T03:27:35.905Z,17.17
2019-02-04T03:30:10.139Z,15.57
2019-02-04T03:32:40.870Z,18.17
2019-02-04T03:35:11.142Z,17.40
2019-02-04T03:37:42.940Z,14.83
2019-02-04T03:40:16.041Z,17.70
2019-02-04T03:42:47.278Z,19.40
2019-02-04T03:45:17.269Z,18.57
2019-02-04T03:47:47.363Z,15.33
2019-02-04T03:50:18.694Z,18.83
2019-02-04T03:52:48.475Z,18.87
2019-02-04T03:55:20.015Z,19.93
2019-02-04T03:57:49.928Z,16.10
2019-02-04T04:00:24.385Z,17.13
2019-02-04T04:02:55.552Z,17.90
2019-02-04T04:05:27.037Z,18.13
2019-02-04T04:07:56.992Z,15.87
2019-02-04T04:10:28.781Z,18.17
2019-02-04T04:12:59.491Z,17.10
2019-02-04T04:15:33.263Z,18.90
2019-02-04T04:18:15.091Z,15.97
2019-02-04T04:20:35.274Z,18.40
2019-02-04T04:23:05.993Z,18.90
2019-02-04T04:25:36.702Z,17.83
2019-02-04T04:28:08.105Z,18.73
2019-02-04T04:30:39.293Z,18.50
2019-02-04T04:33:12.018Z,15.57
2019-02-04T04:35:43.897Z,19.23
2019-02-04T04:38:14.914Z,18.63
2019-02-04T04:40:46.649Z,16.70
2019-02-04T04:43:16.937Z,18.50
2019-02-04T04:45:47.993Z,15.47
2019-02-04T04:48:26.266Z,19.03
2019-02-04T04:50:50.277Z,18.60
2019-02-04T04:53:20.161Z,15.77
2019-02-04T04:55:50.268Z,16.27
2019-02-04T04:58:21.380Z,15.00
2019-02-04T05:00:53.365Z,17.67
2019-02-04T05:03:27.186Z,16.60
2019-02-04T05:05:58.254Z,17.23
2019-02-04T05:08:28.849Z,15.07
2019-02-04T05:11:02.317Z,16.57
2019-02-04T05:13:32.403Z,14.97
2019-02-04T05:16:03.127Z,16.13
2019-02-04T05:18:38.341Z,16.50
2019-02-04T05:21:05.472Z,16.33
2019-02-04T05:23:36.646Z,23.80
2019-02-04T05:26:07.261Z,17.47
2019-02-04T05:28:38.882Z,15.03
2019-02-04T05:31:11.315Z,17.20
2019-02-04T05:33:42.931Z,15.40
2019-02-04T05:36:13.981Z,17.37
2019-02-04T05:38:44.706Z,17.67
2019-02-04T05:41:14.520Z,15.83
2019-02-04T05:43:46.258Z,16.70
2019-02-04T05:46:18.150Z,16.97
2019-02-04T05:48:52.075Z,16.40
2019-02-04T05:51:21.946Z,13.90
2019-02-04T05:53:55.506Z,20.93
2019-02-04T05:56:26.121Z,17.07
2019-02-04T05:58:56.281Z,17.80
2019-02-04T06:01:26.613Z,14.93
2019-02-04T06:03:58.758Z,16.80
2019-02-04T06:06:29.533Z,16.13
2019-02-04T06:08:59.179Z,14.50
2019-02-04T06:11:30.596Z,16.03
2019-02-04T06:14:01.329Z,17.53
2019-02-04T06:16:33.599Z,14.40
2019-02-04T06:19:04.738Z,16.83
2019-02-04T06:21:35.793Z,16.27
2019-02-04T06:24:05.573Z,19.77
2019-02-04T06:26:36.209Z,16.47
2019-02-04T06:29:06.929Z,13.37
2019-02-04T06:31:38.133Z,16.17
2019-02-04T06:34:09.932Z,16.00
2019-02-04T06:36:41.285Z,15.60
2019-02-04T06:39:12.087Z,13.20
2019-02-04T06:41:41.863Z,15.80
2019-02-04T06:44:11.684Z,15.37
2019-02-04T06:46:40.917Z,14.23
2019-02-04T06:49:13.326Z,14.80
2019-02-04T06:51:43.099Z,15.27
2019-02-04T06:54:15.535Z,16.33
2019-02-04T06:56:46.301Z,15.70
2019-02-04T06:59:18.184Z,14.27
2019-02-04T07:01:48.885Z,15.03
2019-02-04T07:04:19.985Z,12.97
2019-02-04T07:06:49.886Z,15.17
2019-02-04T07:09:21.641Z,15.73
2019-02-04T07:11:51.714Z,14.17
2019-02-04T07:14:24.206Z,14.93
2019-02-04T07:16:54.765Z,12.70
2019-02-04T07:19:25.470Z,16.10
2019-02-04T07:21:56.172Z,15.60
2019-02-04T07:24:27.689Z,15.60
2019-02-04T07:26:58.752Z,15.83
2019-02-04T07:29:30.405Z,14.47
2019-02-04T07:32:00.835Z,15.03
2019-02-04T07:34:30.623Z,14.40
2019-02-04T07:37:01.357Z,16.47
2019-02-04T07:39:31.116Z,13.33
2019-02-04T07:42:01.754Z,14.20
2019-02-04T07:44:37.121Z,14.67
2019-02-04T07:47:07.993Z,14.10
2019-02-04T07:49:37.778Z,16.17
2019-02-04T07:52:07.949Z,14.47
2019-02-04T07:54:37.665Z,14.67
2019-02-04T07:57:10.434Z,14.70
2019-02-04T07:59:42.648Z,14.00
2019-02-04T08:02:13.527Z,15.33
2019-02-04T08:04:45.526Z,12.63
2019-02-04T08:07:16.250Z,14.03
2019-02-04T08:09:49.991Z,14.23
2019-02-04T08:12:22.553Z,13.80
2019-02-04T08:14:53.955Z,12.17
2019-02-04T08:17:33.509Z,14.73
2019-02-04T08:20:06.035Z,14.47
2019-02-04T08:22:39.950Z,12.43
2019-02-04T08:25:17.858Z,15.00
2019-02-04T08:27:48.705Z,14.80
2019-02-04T08:30:29.541Z,15.60
2019-02-04T08:33:01.974Z,13.13
2019-02-04T08:35:32.442Z,15.10
2019-02-04T08:38:03.314Z,14.93
2019-02-04T08:40:34.036Z,14.20
2019-02-04T08:43:04.197Z,16.53
2019-02-04T08:45:35.425Z,16.63
2019-02-04T08:48:06.596Z,15.40
2019-02-04T08:50:37.400Z,14.63
2019-02-04T08:53:08.417Z,15.00
2019-02-04T08:55:39.506Z,13.90
2019-02-04T08:58:10.397Z,14.90
2019-02-04T09:00:41.734Z,14.80
2019-02-04T09:03:12.602Z,14.67
2019-02-04T09:05:42.862Z,13.20
2019-02-04T09:08:15.901Z,13.83
2019-02-04T09:10:46.733Z,12.87
2019-02-04T09:13:16.793Z,13.27
2019-02-04T09:15:49.008Z,14.00
2019-02-04T09:18:19.070Z,13.70
2019-02-04T09:20:49.697Z,14.43
2019-02-04T09:23:20.623Z,12.37
2019-02-04T09:25:51.757Z,12.60
2019-02-04T09:28:22.577Z,13.20
2019-02-04T09:30:52.661Z,13.50
2019-02-04T09:33:24.565Z,12.93
2019-02-04T09:35:55.869Z,13.27
2019-02-04T09:38:26.942Z,13.03
2019-02-04T09:40:56.745Z,13.10
2019-02-04T09:43:26.818Z,13.27
2019-02-04T09:45:57.601Z,12.73
2019-02-04T09:48:27.692Z,12.87
2019-02-04T09:51:00.350Z,13.13
2019-02-04T09:53:31.014Z,12.13
2019-02-04T09:56:01.946Z,12.77
2019-02-04T09:58:32.624Z,11.87
2019-02-04T10:01:04.345Z,12.43
2019-02-04T10:03:34.777Z,23.50
2019-02-04T10:06:06.714Z,11.67
2019-02-04T10:08:38.603Z,11.53
2019-02-04T10:11:11.957Z,12.73
2019-02-04T10:13:41.834Z,11.43
2019-02-04T10:16:12.921Z,11.70
2019-02-04T10:18:43.786Z,11.80
2019-02-04T10:21:13.973Z,11.67
2019-02-04T10:23:44.864Z,11.43
2019-02-04T10:26:16.557Z,10.83
2019-02-04T10:28:47.270Z,10.73
2019-02-04T10:31:20.195Z,10.60
2019-02-04T10:33:51.605Z,11.23
2019-02-04T10:36:22.326Z,11.00
2019-02-04T10:38:53.181Z,10.87
2019-02-04T10:41:24.297Z,10.93
2019-02-04T10:43:54.285Z,10.80
2019-02-04T10:46:25.149Z,10.80
2019-02-04T10:48:57.311Z,11.23
2019-02-04T10:51:29.297Z,11.23
2019-02-04T10:53:59.133Z,10.73
2019-02-04T10:56:30.294Z,10.77
2019-02-04T10:59:01.134Z,10.33
2019-02-04T11:01:30.881Z,10.83
2019-02-04T11:04:01.922Z,10.67
2019-02-04T11:06:33.452Z,11.93
2019-02-04T11:09:03.574Z,11.37
2019-02-04T11:11:35.991Z,10.40
2019-02-04T11:14:06.974Z,10.40
2019-02-04T11:16:36.687Z,10.37
2019-02-04T11:19:07.572Z,11.27
2019-02-04T11:21:38.572Z,11.03
2019-02-04T11:24:08.727Z,10.93
2019-02-04T11:26:38.530Z,11.03
2019-02-04T11:29:08.676Z,11.00
2019-02-04T11:31:39.539Z,10.80
2019-02-04T11:34:10.446Z,11.00
2019-02-04T11:36:41.472Z,10.90
2019-02-04T11:39:11.493Z,10.87
2019-02-04T11:41:42.185Z,11.37
2019-02-04T11:44:13.035Z,10.97
2019-02-04T11:46:44.104Z,11.13
2019-02-04T11:49:15.289Z,10.77
2019-02-04T11:51:47.791Z,11.13
2019-02-04T11:54:18.829Z,10.70
2019-02-04T11:56:51.022Z,11.00
2019-02-04T11:59:20.762Z,11.27
2019-02-04T12:01:51.766Z,10.27
2019-02-04T12:04:22.643Z,9.73
2019-02-04T12:06:54.946Z,9.30
2019-02-04T12:09:26.149Z,8.50
2019-02-04T12:11:58.424Z,9.43
2019-02-04T12:14:40.209Z,9.20
2019-02-04T12:17:10.976Z,8.43
2019-02-04T12:19:40.723Z,8.33
2019-02-04T12:22:12.673Z,8.60
2019-02-04T12:24:43.226Z,8.00
2019-02-04T12:27:13.943Z,8.17
2019-02-04T12:29:48.334Z,7.57
2019-02-04T12:32:19.105Z,7.87
2019-02-04T12:34:50.371Z,7.97
2019-02-04T12:37:22.026Z,6.67
2019-02-04T12:39:53.362Z,8.13
2019-02-04T12:42:24.372Z,7.23
2019-02-04T12:44:54.198Z,7.30
2019-02-04T12:47:24.795Z,7.10
2019-02-04T12:49:55.905Z,7.37
2019-02-04T12:52:26.851Z,7.27
2019-02-04T12:54:57.490Z,7.87
2019-02-04T12:57:28.177Z,6.77
2019-02-04T12:59:58.292Z,5.73
2019-02-04T13:02:29.392Z,7.17
2019-02-04T13:05:00.538Z,6.53
2019-02-04T13:07:31.609Z,6.70
2019-02-04T13:10:01.489Z,6.23
2019-02-04T13:12:32.727Z,5.80
2019-02-04T13:15:03.772Z,6.17
2019-02-04T13:17:35.316Z,4.93
2019-02-04T13:20:09.437Z,5.03
2019-02-04T13:22:40.272Z,5.10
2019-02-04T13:25:12.753Z,4.50
2019-02-04T13:27:43.381Z,4.37
2019-02-04T13:30:18.092Z,4.40
2019-02-04T13:32:48.508Z,4.87
2019-02-04T13:35:18.374Z,4.60
2019-02-04T13:37:49.081Z,5.20
2019-02-04T13:40:31.736Z,4.67
2019-02-04T13:43:02.675Z,4.87
2019-02-04T13:45:33.573Z,5.60
2019-02-04T13:48:04.288Z,4.53
2019-02-04T13:50:35.646Z,4.03
2019-02-04T13:53:07.082Z,4.27
2019-02-04T13:55:37.924Z,4.50
2019-02-04T13:58:08.682Z,4.23
2019-02-04T14:00:38.918Z,4.93
2019-02-04T14:03:09.117Z,4.20
2019-02-04T14:05:39.765Z,3.97
2019-02-04T14:08:30.187Z,4.00
2019-02-04T14:11:05.328Z,4.40
2019-02-04T14:13:36.165Z,4.30
2019-02-04T14:16:06.771Z,4.10
2019-02-04T14:18:37.489Z,4.13
2019-02-04T14:21:08.772Z,4.23
2019-02-04T14:23:39.658Z,4.10
2019-02-04T14:26:11.389Z,4.10
2019-02-04T14:28:41.471Z,5.37
2019-02-04T14:31:11.777Z,4.03
2019-02-04T14:33:41.683Z,4.10
2019-02-04T14:36:12.809Z,3.80
2019-02-04T14:38:42.894Z,4.33
2019-02-04T14:41:14.891Z,4.37
2019-02-04T14:43:46.362Z,4.07
2019-02-04T14:46:26.558Z,4.57
2019-02-04T14:49:06.893Z,4.27
2019-02-04T14:51:55.506Z,3.83
2019-02-04T14:54:44.374Z,6.57
2019-02-04T14:57:35.099Z,4.90
2019-02-04T15:00:19.847Z,4.23
2019-02-04T15:03:06.497Z,4.17
2019-02-04T15:05:43.833Z,4.17
2019-02-04T15:08:33.281Z,4.50
2019-02-04T15:11:06.355Z,4.13
2019-02-04T15:13:37.006Z,4.87
2019-02-04T15:16:19.251Z,4.43
2019-02-04T15:19:08.802Z,4.60
2019-02-04T15:21:43.163Z,5.00
2019-02-04T15:24:14.566Z,4.40
2019-02-04T15:26:45.875Z,5.17
2019-02-04T15:29:46.144Z,5.53
2019-02-04T15:32:13.343Z,5.40
2019-02-04T15:35:05.249Z,5.17
2019-02-04T15:37:43.502Z,6.03
2019-02-04T15:40:31.044Z,5.13
2019-02-04T15:43:12.582Z,5.10
2019-02-04T15:45:44.894Z,5.57
2019-02-04T15:48:18.697Z,4.80
2019-02-04T15:50:51.164Z,5.10
2019-02-04T15:53:21.782Z,4.37
2019-02-04T15:55:51.453Z,4.80
2019-02-04T15:58:22.137Z,4.50
2019-02-04T16:00:52.853Z,4.73
2019-02-04T16:03:23.702Z,4.73
2019-02-04T16:05:54.306Z,5.30
2019-02-04T16:08:26.125Z,5.50
2019-02-04T16:10:58.160Z,4.90
2019-02-04T16:13:31.081Z,5.17
2019-02-04T16:16:02.202Z,5.13
2019-02-04T16:18:33.998Z,5.00
2019-02-04T16:21:05.967Z,5.03
2019-02-04T16:23:36.558Z,5.10
2019-02-04T16:26:09.897Z,5.27
2019-02-04T16:28:42.846Z,5.50
2019-02-04T16:31:13.424Z,5.30
2019-02-04T16:33:44.044Z,4.10
2019-02-04T16:36:15.665Z,4.57
2019-02-04T16:38:47.428Z,4.03
2019-02-04T16:41:18.078Z,4.70
2019-02-04T16:43:49.527Z,4.33
2019-02-04T16:46:21.085Z,4.13
2019-02-04T16:48:53.561Z,4.00
2019-02-04T16:51:25.302Z,5.90
2019-02-04T16:53:57.921Z,4.93
2019-02-04T16:56:28.973Z,4.30
2019-02-04T16:59:00.088Z,4.20
2019-02-04T17:01:31.038Z,4.10
2019-02-04T17:04:01.957Z,4.30
2019-02-04T17:06:33.090Z,4.13
2019-02-04T17:09:03.929Z,4.30
2019-02-04T17:11:35.782Z,4.00
2019-02-04T17:14:08.498Z,4.10
2019-02-04T17:16:39.234Z,4.13
2019-02-04T17:19:09.933Z,4.10
2019-02-04T17:21:40.953Z,4.03
2019-02-04T17:24:11.693Z,4.30
2019-02-04T17:26:42.487Z,3.63
2019-02-04T17:29:12.574Z,4.23
2019-02-04T17:31:43.538Z,3.90
2019-02-04T17:34:14.011Z,8.43
2019-02-04T17:36:45.163Z,3.80
2019-02-04T17:39:15.894Z,3.47
2019-02-04T17:41:46.485Z,3.77
2019-02-04T17:44:16.261Z,3.70
2019-02-04T17:46:46.811Z,3.60
2019-02-04T17:49:16.555Z,3.60
2019-02-04T17:51:47.197Z,3.50
2019-02-04T17:54:18.604Z,3.77
2019-02-04T17:56:50.837Z,3.67
2019-02-04T17:59:23.211Z,3.50
2019-02-04T18:01:54.542Z,3.67
2019-02-04T18:04:25.665Z,4.10
2019-02-04T18:06:56.906Z,4.10
2019-02-04T18:09:30.699Z,3.60
2019-02-04T18:12:01.402Z,3.90
2019-02-04T18:14:31.162Z,3.33
2019-02-04T18:17:02.918Z,4.33
2019-02-04T18:19:32.602Z,3.70
2019-02-04T18:22:04.604Z,3.83
2019-02-04T18:24:35.506Z,4.10
2019-02-04T18:27:06.533Z,4.50
2019-02-04T18:29:37.269Z,4.37
2019-02-04T18:32:08.528Z,5.20
2019-02-04T18:34:40.559Z,4.80
2019-02-04T18:37:12.041Z,5.10
2019-02-04T18:39:42.865Z,5.30
2019-02-04T18:42:13.889Z,4.93
2019-02-04T18:44:46.303Z,5.00
2019-02-04T18:47:16.481Z,4.73
2019-02-04T18:49:47.678Z,4.70
2019-02-04T18:52:17.580Z,5.20
2019-02-04T18:54:48.606Z,4.53
2019-02-04T18:57:19.867Z,4.30
2019-02-04T18:59:52.000Z,4.47
2019-02-04T19:02:26.690Z,4.10
2019-02-04T19:04:59.008Z,4.67
2019-02-04T19:07:31.542Z,4.57
2019-02-04T19:10:03.008Z,4.93
2019-02-04T19:12:36.403Z,6.23
2019-02-04T19:15:17.447Z,5.07
2019-02-04T19:17:51.861Z,5.10
2019-02-04T19:20:24.633Z,4.63
2019-02-04T19:22:54.515Z,5.30
2019-02-04T19:25:24.298Z,4.63
2019-02-04T19:27:53.973Z,5.00
2019-02-04T19:30:25.423Z,4.43
2019-02-04T19:32:56.045Z,4.97
2019-02-04T19:35:28.539Z,4.97
2019-02-04T19:38:00.526Z,16.63
2019-02-04T19:40:30.577Z,4.90
2019-02-04T19:43:00.388Z,5.23
2019-02-04T19:45:31.135Z,5.60
2019-02-04T19:48:03.186Z,5.13
2019-02-04T19:50:39.346Z,5.47
2019-02-04T19:53:11.724Z,5.37
2019-02-04T19:55:41.796Z,4.33
2019-02-04T19:58:11.992Z,5.37
2019-02-04T20:00:43.158Z,5.17
2019-02-04T20:03:14.619Z,4.93
2019-02-04T20:05:44.389Z,5.13
2019-02-04T20:08:15.090Z,5.00
2019-02-04T20:10:45.778Z,5.10
2019-02-04T20:13:18.221Z,5.10
2019-02-04T20:15:49.905Z,5.43
2019-02-04T20:18:21.086Z,5.93
2019-02-04T20:20:51.730Z,5.00
2019-02-04T20:23:21.495Z,4.40
2019-02-04T20:25:52.441Z,4.43
2019-02-04T20:28:23.134Z,4.70
2019-02-04T20:30:53.882Z,5.40
2019-02-04T20:33:24.465Z,3.70
2019-02-04T20:35:56.905Z,4.13
2019-02-04T20:38:27.884Z,3.97
2019-02-04T20:40:58.603Z,3.83
2019-02-04T20:43:29.530Z,4.10
2019-02-04T20:45:59.716Z,4.50
2019-02-04T20:48:33.294Z,3.30
2019-02-04T20:51:05.713Z,4.23
2019-02-04T20:53:36.316Z,4.00
2019-02-04T20:56:05.753Z,3.90
2019-02-04T20:58:36.363Z,3.77
2019-02-04T21:01:07.075Z,4.07
2019-02-04T21:03:38.088Z,3.70
2019-02-04T21:06:07.962Z,4.03
2019-02-04T21:08:39.978Z,4.20
2019-02-04T21:11:11.086Z,4.17
2019-02-04T21:13:42.962Z,4.20
2019-02-04T21:16:13.730Z,4.47
2019-02-04T21:18:45.678Z,5.10
2019-02-04T21:21:17.460Z,4.30
2019-02-04T21:23:48.472Z,4.83
2019-02-04T21:26:20.247Z,5.10
2019-02-04T21:28:51.175Z,4.73
2019-02-04T21:31:22.101Z,4.40
2019-02-04T21:33:53.659Z,5.93
2019-02-04T21:36:25.418Z,4.73
2019-02-04T21:38:56.434Z,4.40
2019-02-04T21:41:26.715Z,4.83
2019-02-04T21:43:57.189Z,4.40
2019-02-04T21:46:28.985Z,4.50
2019-02-04T21:49:01.417Z,4.20
2019-02-04T21:51:33.961Z,3.43
2019-02-04T21:54:04.697Z,4.50
2019-02-04T21:56:35.033Z,4.77
2019-02-04T21:59:07.142Z,4.30
2019-02-04T22:01:37.297Z,3.60
2019-02-04T22:04:08.505Z,6.17
2019-02-04T22:06:38.316Z,4.27
2019-02-04T22:09:09.600Z,4.57
2019-02-04T22:11:40.250Z,4.20
2019-02-04T22:14:12.738Z,4.37
2019-02-04T22:16:43.572Z,3.83
2019-02-04T22:19:13.661Z,4.10
2019-02-04T22:21:43.433Z,3.87
2019-02-04T22:24:15.450Z,4.17
2019-02-04T22:26:46.249Z,3.57
2019-02-04T22:29:16.733Z,4.37
2019-02-04T22:31:47.873Z,3.50
2019-02-04T22:34:19.029Z,3.83
2019-02-04T22:36:48.349Z,4.00
2019-02-04T22:39:17.457Z,4.10
2019-02-04T22:41:47.097Z,4.43
2019-02-04T22:44:17.305Z,4.37
2019-02-04T22:46:48.464Z,4.47
2019-02-04T22:49:19.261Z,3.63
2019-02-04T22:51:49.681Z,4.17
2019-02-04T22:54:21.373Z,4.40
2019-02-04T22:56:51.995Z,4.20
2019-02-04T22:59:25.609Z,4.50
2019-02-04T23:01:58.623Z,4.77
2019-02-04T23:04:29.971Z,4.30
2019-02-04T23:07:01.921Z,4.13
2019-02-04T23:09:32.806Z,4.20
2019-02-04T23:12:03.041Z,5.10
2019-02-04T23:14:33.881Z,16.03
2019-02-04T23:17:05.167Z,5.17
2019-02-04T23:19:35.233Z,4.30
2019-02-04T23:22:06.137Z,4.33
2019-02-04T23:24:36.845Z,4.90
2019-02-04T23:27:07.579Z,5.30
2019-02-04T23:29:39.469Z,4.87
2019-02-04T23:32:09.229Z,5.43
2019-02-04T23:34:41.173Z,5.40
2019-02-04T23:37:13.702Z,4.47
2019-02-04T23:39:43.579Z,5.00
2019-02-04T23:42:14.182Z,4.73
2019-02-04T23:44:45.222Z,5.07
2019-02-04T23:47:16.246Z,4.77
2019-02-04T23:49:47.902Z,5.40
2019-02-04T23:52:17.923Z,5.27
2019-02-04T23:54:48.718Z,4.97
2019-02-04T23:57:19.465Z,5.60
2019-02-04T23:59:49.530Z,4.27
